createdAt,value
2022-11-27T00:00:46.227Z,20.20
2022-11-27T00:33:06.870Z,20.05
2022-11-27T00:33:46.771Z,20.03
2022-11-27T00:34:46.774Z,19.98
2022-11-27T00:35:46.790Z,19.96
2022-11-27T00:36:48.271Z,19.99
2022-11-27T00:37:46.730Z,19.99
2022-11-27T00:38:47.714Z,19.98
2022-11-27T00:49:48.282Z,20.03
2022-11-27T00:50:49.992Z,20.01
2022-11-27T00:57:02.452Z,20.02
2022-11-27T00:58:02.809Z,20.02
2022-11-27T00:59:05.718Z,20.03
2022-11-27T01:00:02.709Z,20.03
2022-11-27T01:01:03.447Z,20.03
2022-11-27T01:02:03.472Z,19.99
2022-11-27T01:03:03.791Z,19.94
2022-11-27T01:04:06.037Z,19.92
2022-11-27T01:05:04.577Z,19.94
2022-11-27T01:06:03.497Z,19.95
2022-11-27T01:32:24.957Z,19.56
2022-11-27T01:32:50.358Z,19.54
2022-11-27T01:33:50.316Z,19.51
2022-11-27T01:34:50.682Z,19.59
2022-11-27T01:35:51.072Z,19.62
2022-11-27T01:36:50.902Z,19.61
2022-11-27T01:37:50.322Z,19.68
2022-11-27T01:42:59.383Z,19.68
2022-11-27T01:44:00.409Z,19.62
2022-11-27T01:45:03.065Z,19.61
2022-11-27T01:46:01.546Z,19.58
2022-11-27T01:47:00.431Z,19.48
2022-11-27T01:48:01.809Z,19.48
2022-11-27T01:49:01.160Z,19.51
2022-11-27T03:43:54.804Z,18.58
2022-11-27T03:44:56.340Z,18.52
2022-11-27T03:45:57.929Z,18.50
2022-11-27T03:46:54.843Z,18.47
2022-11-27T03:47:55.715Z,18.45
2022-11-27T03:48:54.763Z,18.45
2022-11-27T03:49:54.765Z,18.42
2022-11-27T03:50:54.688Z,18.37
2022-11-27T03:51:54.669Z,18.39
2022-11-27T03:52:54.651Z,18.42
2022-11-27T03:53:55.371Z,18.41
2022-11-27T03:54:55.601Z,18.42
2022-11-27T03:55:54.624Z,18.44
2022-11-27T03:56:54.640Z,18.45
2022-11-27T03:57:54.603Z,18.44
2022-11-27T03:58:54.643Z,18.47
2022-11-27T03:59:54.601Z,18.47
2022-11-27T04:00:54.612Z,18.48
2022-11-27T04:01:54.626Z,18.47
2022-11-27T04:02:55.722Z,18.44
2022-11-27T04:03:54.678Z,18.41
2022-11-27T04:04:54.567Z,18.41
2022-11-27T04:05:55.304Z,18.39
2022-11-27T04:07:04.339Z,18.37
2022-11-27T04:07:54.583Z,18.37
2022-11-27T04:08:54.520Z,18.41
2022-11-27T04:09:54.508Z,18.39
2022-11-27T04:10:54.491Z,18.37
2022-11-27T04:11:54.451Z,18.37
2022-11-27T04:12:56.279Z,18.36
2022-11-27T04:13:54.500Z,18.32
2022-11-27T04:14:54.397Z,18.32
2022-11-27T04:15:54.417Z,18.35
2022-11-27T04:16:54.364Z,18.36
2022-11-27T04:17:54.405Z,18.35
2022-11-27T04:18:55.147Z,18.37
2022-11-27T04:19:54.359Z,18.39
2022-11-27T04:20:54.297Z,18.37
2022-11-27T04:21:54.323Z,18.35
2022-11-27T04:22:54.384Z,18.36
2022-11-27T04:23:54.362Z,18.39
2022-11-27T04:24:54.303Z,18.33
2022-11-27T04:25:54.304Z,18.32
2022-11-27T04:26:55.972Z,18.30
2022-11-27T04:27:54.826Z,18.29
2022-11-27T04:28:54.829Z,18.30
2022-11-27T04:29:55.457Z,18.35
2022-11-27T04:30:54.296Z,18.37
2022-11-27T04:31:54.255Z,18.33
2022-11-27T04:32:54.166Z,18.30
2022-11-27T04:33:55.262Z,18.29
2022-11-27T04:34:56.549Z,18.26
2022-11-27T04:35:54.239Z,18.30
2022-11-27T04:36:54.149Z,18.33
2022-11-27T04:37:54.179Z,18.36
2022-11-27T04:38:54.112Z,18.41
2022-11-27T04:39:54.390Z,18.42
2022-11-27T04:40:54.804Z,18.45
2022-11-27T04:41:54.165Z,18.50
2022-11-27T04:42:54.083Z,18.51
2022-11-27T04:43:54.091Z,18.51
2022-11-27T04:44:54.789Z,18.54
2022-11-27T04:45:54.784Z,18.52
2022-11-27T04:46:54.137Z,18.52
2022-11-27T04:47:54.072Z,18.50
2022-11-27T04:48:55.784Z,18.47
2022-11-27T04:49:54.092Z,18.47
2022-11-27T04:50:55.618Z,18.48
2022-11-27T04:51:53.994Z,18.50
2022-11-27T04:52:53.963Z,18.52
2022-11-27T04:53:54.006Z,18.55
2022-11-27T04:54:59.672Z,18.57
2022-11-27T04:55:53.989Z,18.60
2022-11-27T04:56:53.955Z,18.54
2022-11-27T04:57:53.930Z,18.54
2022-11-27T04:58:55.266Z,18.57
2022-11-27T04:59:53.980Z,18.54
2022-11-27T06:04:53.895Z,18.72
2022-11-27T06:05:48.254Z,18.70
2022-11-27T06:06:48.264Z,18.72
2022-11-27T06:07:48.332Z,18.72
2022-11-27T06:08:49.042Z,18.75
2022-11-27T06:20:43.389Z,18.78
2022-11-27T06:21:38.898Z,18.76
2022-11-27T06:22:38.837Z,18.78
2022-11-27T06:23:38.833Z,18.75
2022-11-27T06:24:39.315Z,18.73
2022-11-27T06:25:38.888Z,18.67
2022-11-27T06:26:38.851Z,18.62
2022-11-27T06:27:38.799Z,18.60
2022-11-27T06:28:38.790Z,18.60
2022-11-27T06:29:38.913Z,18.60
2022-11-27T06:35:56.590Z,18.55
2022-11-27T06:36:56.956Z,18.55
2022-11-27T06:37:56.881Z,18.54
2022-11-27T06:38:56.883Z,18.51
2022-11-27T06:39:56.892Z,18.54
2022-11-27T06:40:56.909Z,18.54
2022-11-27T07:08:14.545Z,18.90
2022-11-27T07:09:15.318Z,18.91
2022-11-27T07:10:15.227Z,18.92
2022-11-27T07:23:42.737Z,18.87
2022-11-27T07:24:43.718Z,18.85
2022-11-27T07:25:45.545Z,18.85
2022-11-27T07:26:43.669Z,18.88
2022-11-27T07:27:48.780Z,18.88
2022-11-27T07:28:44.791Z,18.90
2022-11-27T07:29:45.422Z,18.91
2022-11-27T07:30:44.638Z,18.92
2022-11-27T07:32:07.770Z,18.91
2022-11-27T07:32:43.627Z,18.91
2022-11-27T07:33:44.508Z,18.91
2022-11-27T08:48:07.302Z,18.75
2022-11-27T08:48:49.170Z,18.67
2022-11-27T08:49:47.076Z,18.66
2022-11-27T08:50:47.043Z,18.69
2022-11-27T08:51:47.785Z,18.70
2022-11-27T08:52:46.975Z,18.72
2022-11-27T08:53:47.033Z,18.67
2022-11-27T08:54:47.004Z,18.62
2022-11-27T08:55:48.764Z,18.52
2022-11-27T08:56:46.988Z,18.52
2022-11-27T08:57:46.991Z,18.48
2022-11-27T08:58:46.957Z,18.44
2022-11-27T08:59:46.907Z,18.37
2022-11-27T09:44:58.078Z,19.69
2022-11-27T09:45:33.346Z,19.62
2022-11-27T09:46:33.278Z,19.62
2022-11-27T09:53:37.634Z,19.65
2022-11-27T09:54:38.697Z,19.50
2022-11-27T09:55:38.334Z,19.54
2022-11-27T09:56:38.324Z,19.56
2022-11-27T09:57:38.275Z,19.62
2022-11-27T10:07:06.061Z,19.69
2022-11-27T10:08:07.202Z,19.71
2022-11-27T10:09:07.083Z,19.73
2022-11-27T10:10:06.909Z,19.81
2022-11-27T10:11:06.154Z,19.88
2022-11-27T10:15:37.473Z,20.18
2022-11-27T10:16:42.897Z,20.32
2022-11-27T10:17:38.873Z,20.51
2022-11-27T10:18:37.888Z,20.66
2022-11-27T10:19:38.837Z,20.77
2022-11-27T10:20:37.835Z,20.92
2022-11-27T10:21:37.827Z,20.97
2022-11-27T10:22:37.782Z,20.95
2022-11-27T10:23:37.854Z,20.88
2022-11-27T10:24:38.305Z,20.85
2022-11-27T10:25:38.500Z,20.92
2022-11-27T10:26:37.759Z,20.91
2022-11-27T10:27:37.754Z,21.06
2022-11-27T10:28:37.741Z,21.17
2022-11-27T10:29:37.809Z,21.17
2022-11-27T10:30:38.554Z,21.17
2022-11-27T10:31:38.407Z,21.09
2022-11-27T10:33:37.753Z,21.07
2022-11-27T10:34:37.713Z,21.12
2022-11-27T10:35:37.677Z,21.16
2022-11-27T10:36:37.670Z,21.07
2022-11-27T10:37:37.667Z,20.82
2022-11-27T10:38:37.681Z,20.77
2022-11-27T10:39:37.651Z,20.88
2022-11-27T10:40:37.590Z,20.99
2022-11-27T10:41:52.925Z,20.99
2022-11-27T10:42:37.604Z,20.67
2022-11-27T10:43:38.432Z,20.57
2022-11-27T10:44:37.923Z,20.62
2022-11-27T10:45:37.589Z,20.85
2022-11-27T10:46:37.575Z,21.07
2022-11-27T10:47:38.232Z,21.19
2022-11-27T10:48:37.557Z,21.31
2022-11-27T10:49:37.524Z,21.17
2022-11-27T10:50:37.501Z,21.14
2022-11-27T10:51:37.459Z,21.06
2022-11-27T10:52:37.472Z,21.06
2022-11-27T10:53:38.202Z,20.89
2022-11-27T10:54:38.456Z,20.79
2022-11-27T10:55:37.993Z,20.89
2022-11-27T10:56:37.472Z,20.94
2022-11-27T10:57:37.449Z,20.99
2022-11-27T10:58:37.413Z,20.95
2022-11-27T10:59:37.400Z,20.80
2022-11-27T11:00:37.929Z,20.85
2022-11-27T11:01:38.011Z,20.88
2022-11-27T11:02:37.660Z,21.06
2022-11-27T11:03:40.094Z,21.13
2022-11-27T11:04:38.706Z,21.32
2022-11-27T11:06:11.542Z,21.47
2022-11-27T11:06:37.325Z,21.52
2022-11-27T11:07:39.364Z,21.71
2022-11-27T11:08:37.926Z,21.88
2022-11-27T11:09:38.048Z,22.02
2022-11-27T11:10:37.305Z,22.14
2022-11-27T11:12:34.345Z,22.36
2022-11-27T11:13:36.283Z,22.47
2022-11-27T11:14:36.831Z,22.43
2022-11-27T11:15:35.953Z,22.40
2022-11-27T11:16:36.167Z,22.25
2022-11-27T11:17:35.342Z,22.28
2022-11-27T11:19:49.480Z,21.96
2022-11-27T11:20:53.586Z,21.75
2022-11-27T11:21:51.341Z,21.77
2022-11-27T11:22:50.357Z,21.67
2022-11-27T11:25:09.647Z,21.43
2022-11-27T11:26:10.673Z,21.49
2022-11-27T11:27:10.680Z,21.53
2022-11-27T11:28:12.768Z,21.64
2022-11-27T11:29:13.864Z,21.67
2022-11-27T11:30:10.611Z,21.68
2022-11-27T11:31:10.739Z,21.64
2022-11-27T11:32:10.577Z,21.64
2022-11-27T11:35:28.366Z,22.18
2022-11-27T11:40:53.400Z,21.96
2022-11-27T11:45:57.444Z,22.25
2022-11-27T11:46:57.641Z,22.25
2022-11-27T11:51:39.361Z,22.64
2022-11-27T11:52:58.959Z,22.52
2022-11-27T11:53:40.153Z,22.49
2022-11-27T11:54:40.517Z,22.55
2022-11-27T11:55:40.119Z,22.65
2022-11-27T11:56:42.205Z,22.65
2022-11-27T11:57:40.140Z,22.57
2022-11-27T11:58:41.102Z,22.62
2022-11-27T11:59:43.721Z,22.54
2022-11-27T12:01:04.444Z,22.64
2022-11-27T12:01:40.117Z,22.76
2022-11-27T12:02:40.397Z,22.79
2022-11-27T12:03:41.822Z,22.75
2022-11-27T12:04:40.467Z,22.82
2022-11-27T12:05:40.029Z,22.82
2022-11-27T12:06:40.070Z,22.77
2022-11-27T12:07:40.126Z,22.80
2022-11-27T12:08:41.983Z,22.83
2022-11-27T12:09:40.037Z,22.90
2022-11-27T12:10:40.049Z,22.85
2022-11-27T12:11:40.038Z,22.91
2022-11-27T12:12:40.021Z,23.04
2022-11-27T12:13:39.941Z,23.22
2022-11-27T12:14:40.240Z,23.40
2022-11-27T12:15:39.955Z,23.31
2022-11-27T12:16:39.974Z,23.31
2022-11-27T12:17:39.936Z,23.38
2022-11-27T12:18:39.898Z,23.23
2022-11-27T12:19:41.068Z,23.16
2022-11-27T12:20:40.802Z,23.13
2022-11-27T12:21:39.919Z,23.27
2022-11-27T12:22:39.911Z,23.33
2022-11-27T12:23:42.931Z,23.33
2022-11-27T12:24:40.138Z,23.36
2022-11-27T12:25:39.849Z,23.47
2022-11-27T12:26:40.697Z,23.50
2022-11-27T12:27:39.840Z,23.57
2022-11-27T12:28:39.856Z,23.28
2022-11-27T12:29:42.868Z,23.33
2022-11-27T12:31:01.407Z,23.25
2022-11-27T12:31:48.052Z,23.22
2022-11-27T12:32:56.563Z,23.27
2022-11-27T12:33:39.739Z,23.47
2022-11-27T12:34:40.324Z,23.72
2022-11-27T12:48:28.068Z,23.65
2022-11-27T12:49:19.895Z,23.80
2022-11-27T12:50:19.838Z,24.00
2022-11-27T12:51:19.829Z,24.20
2022-11-27T12:52:19.765Z,24.32
2022-11-27T12:53:24.769Z,24.34
2022-11-27T12:54:19.799Z,24.43
2022-11-27T12:55:20.484Z,24.35
2022-11-27T12:56:19.724Z,24.22
2022-11-27T12:57:19.788Z,24.13
2022-11-27T12:58:19.736Z,24.16
2022-11-27T12:59:19.740Z,24.12
2022-11-27T13:00:19.770Z,24.09
2022-11-27T13:01:25.038Z,24.13
2022-11-27T13:02:19.760Z,24.28
2022-11-27T13:03:19.735Z,24.31
2022-11-27T13:04:19.687Z,24.37
2022-11-27T13:05:19.653Z,24.37
2022-11-27T13:06:20.814Z,24.30
2022-11-27T13:07:19.712Z,24.24
2022-11-27T13:08:20.333Z,24.10
2022-11-27T13:09:19.602Z,24.09
2022-11-27T13:10:19.595Z,24.13
2022-11-27T13:11:19.575Z,24.25
2022-11-27T13:12:19.617Z,24.39
2022-11-27T13:13:19.602Z,24.46
2022-11-27T13:14:20.388Z,24.53
2022-11-27T13:15:19.520Z,24.69
2022-11-27T13:16:19.547Z,24.81
2022-11-27T13:17:20.346Z,24.91
2022-11-27T13:18:19.512Z,24.98
2022-11-27T13:19:19.515Z,24.95
2022-11-27T13:20:19.434Z,24.65
2022-11-27T13:21:19.477Z,24.39
2022-11-27T13:22:19.498Z,24.43
2022-11-27T13:23:19.456Z,24.62
2022-11-27T13:24:19.492Z,24.67
2022-11-27T13:25:19.465Z,24.53
2022-11-27T13:26:23.336Z,24.53
2022-11-27T13:27:20.370Z,24.62
2022-11-27T13:28:19.418Z,24.65
2022-11-27T13:29:20.273Z,24.77
2022-11-27T13:30:19.403Z,24.85
2022-11-27T13:31:19.425Z,24.93
2022-11-27T13:32:19.394Z,24.91
2022-11-27T13:33:19.384Z,24.93
2022-11-27T13:34:19.376Z,24.93
2022-11-27T13:35:19.286Z,24.95
2022-11-27T13:36:19.290Z,24.84
2022-11-27T13:37:19.300Z,24.96
2022-11-27T13:38:19.255Z,24.95
2022-11-27T13:39:19.315Z,25.03
2022-11-27T13:40:19.285Z,25.18
2022-11-27T13:41:19.245Z,25.17
2022-11-27T13:42:19.298Z,25.23
2022-11-27T13:43:19.257Z,25.35
2022-11-27T13:44:19.236Z,25.39
2022-11-27T13:45:19.278Z,25.46
2022-11-27T13:46:19.276Z,25.51
2022-11-27T13:47:19.217Z,25.61
2022-11-27T13:48:19.157Z,25.46
2022-11-27T13:49:19.262Z,25.35
2022-11-27T13:50:19.215Z,25.13
2022-11-27T13:51:19.116Z,25.18
2022-11-27T13:52:19.160Z,25.36
2022-11-27T13:53:19.116Z,25.52
2022-11-27T13:54:20.455Z,25.64
2022-11-27T13:55:19.118Z,25.72
2022-11-27T13:56:19.098Z,25.75
2022-11-27T13:57:19.073Z,25.77
2022-11-27T13:58:19.044Z,25.82
2022-11-27T13:59:19.120Z,25.87
2022-11-27T14:00:19.086Z,25.91
2022-11-27T14:01:19.139Z,25.98
2022-11-27T14:02:19.111Z,26.01
2022-11-27T14:03:19.806Z,25.79
2022-11-27T14:04:19.014Z,25.61
2022-11-27T14:05:19.036Z,25.51
2022-11-27T14:06:19.013Z,25.62
2022-11-27T14:07:18.982Z,25.70
2022-11-27T14:08:18.978Z,25.77
2022-11-27T14:09:19.001Z,25.83
2022-11-27T14:10:18.898Z,25.87
2022-11-27T14:11:18.904Z,25.92
2022-11-27T14:12:20.838Z,25.98
2022-11-27T14:13:21.429Z,25.99
2022-11-27T14:14:18.945Z,26.01
2022-11-27T14:15:18.879Z,26.13
2022-11-27T14:16:18.877Z,26.23
2022-11-27T14:17:18.841Z,26.33
2022-11-27T14:18:18.840Z,26.35
2022-11-27T14:19:18.856Z,26.07
2022-11-27T14:20:18.793Z,25.88
2022-11-27T14:21:18.826Z,25.80
2022-11-27T14:22:18.825Z,25.80
2022-11-27T14:23:18.860Z,25.85
2022-11-27T14:24:18.808Z,25.91
2022-11-27T14:25:18.798Z,25.91
2022-11-27T14:26:18.777Z,25.95
2022-11-27T14:27:18.738Z,26.05
2022-11-27T14:28:27.549Z,26.09
2022-11-27T14:29:18.800Z,26.15
2022-11-27T14:30:18.724Z,26.17
2022-11-27T14:31:19.603Z,26.17
2022-11-27T14:32:18.670Z,26.18
2022-11-27T14:33:18.755Z,26.20
2022-11-27T14:34:23.406Z,26.13
2022-11-27T14:35:19.506Z,26.13
2022-11-27T14:36:19.367Z,26.12
2022-11-27T14:37:18.714Z,26.15
2022-11-27T14:38:18.719Z,26.17
2022-11-27T14:39:18.621Z,26.17
2022-11-27T14:40:18.644Z,26.17
2022-11-27T14:41:18.627Z,26.10
2022-11-27T14:42:18.992Z,26.10
2022-11-27T14:43:18.632Z,26.05
2022-11-27T14:44:18.656Z,26.02
2022-11-27T14:45:18.562Z,25.98
2022-11-27T14:46:19.143Z,25.98
2022-11-27T14:47:18.579Z,26.05
2022-11-27T14:48:20.361Z,26.13
2022-11-27T14:49:18.823Z,26.18
2022-11-27T14:50:18.612Z,26.20
2022-11-27T14:51:19.196Z,26.26
2022-11-27T14:52:18.536Z,26.30
2022-11-27T14:53:18.548Z,26.32
2022-11-27T14:54:18.533Z,26.40
2022-11-27T14:55:18.565Z,26.23
2022-11-27T14:56:19.079Z,26.01
2022-11-27T14:57:18.487Z,25.79
2022-11-27T14:58:18.578Z,25.65
2022-11-27T14:59:18.464Z,25.55
2022-11-27T15:00:18.497Z,25.45
2022-11-27T15:01:18.522Z,25.46
2022-11-27T15:02:18.605Z,25.55
2022-11-27T15:03:18.472Z,25.61
2022-11-27T15:04:18.507Z,25.70
2022-11-27T15:05:18.400Z,25.62
2022-11-27T15:06:18.413Z,25.54
2022-11-27T15:07:18.504Z,25.51
2022-11-27T15:08:18.420Z,25.46
2022-11-27T15:09:31.312Z,25.46
2022-11-27T15:10:18.325Z,25.42
2022-11-27T15:11:35.737Z,25.40
2022-11-27T15:12:18.540Z,25.39
2022-11-27T15:13:20.921Z,25.28
2022-11-27T15:14:19.004Z,25.20
2022-11-27T15:15:18.364Z,25.18
2022-11-27T15:16:18.791Z,25.23
2022-11-27T15:17:18.688Z,25.20
2022-11-27T15:18:18.522Z,25.23
2022-11-27T15:19:18.166Z,25.17
2022-11-27T15:20:18.160Z,25.18
2022-11-27T15:21:18.120Z,25.25
2022-11-27T15:22:18.209Z,25.30
2022-11-27T15:23:18.174Z,25.27
2022-11-27T15:24:18.184Z,25.28
2022-11-27T15:25:18.094Z,25.30
2022-11-27T15:26:23.902Z,25.33
2022-11-27T15:27:18.063Z,25.32
2022-11-27T15:28:18.132Z,25.24
2022-11-27T15:29:18.093Z,25.20
2022-11-27T15:30:18.218Z,25.17
2022-11-27T15:31:18.085Z,25.10
2022-11-27T15:32:23.150Z,25.06
2022-11-27T15:33:18.060Z,24.96
2022-11-27T15:34:18.075Z,24.90
2022-11-27T15:35:18.041Z,24.95
2022-11-27T15:36:18.061Z,24.95
2022-11-27T15:37:18.036Z,25.00
2022-11-27T15:38:17.950Z,25.15
2022-11-27T15:39:17.978Z,25.23
2022-11-27T15:40:17.965Z,25.20
2022-11-27T15:41:17.934Z,25.20
2022-11-27T15:42:17.979Z,25.25
2022-11-27T15:43:17.893Z,25.38
2022-11-27T15:44:17.867Z,25.45
2022-11-27T15:45:17.860Z,25.38
2022-11-27T15:46:17.932Z,25.28
2022-11-27T15:47:17.818Z,25.30
2022-11-27T15:48:17.848Z,25.28
2022-11-27T15:49:17.871Z,25.27
2022-11-27T15:50:17.863Z,25.40
2022-11-27T15:51:17.798Z,25.47
2022-11-27T15:52:17.852Z,25.51
2022-11-27T15:53:17.777Z,25.58
2022-11-27T15:54:17.786Z,25.51
2022-11-27T15:55:17.813Z,25.61
2022-11-27T15:56:17.818Z,25.73
2022-11-27T15:57:17.745Z,25.69
2022-11-27T15:58:17.759Z,25.61
2022-11-27T15:59:17.710Z,25.65
2022-11-27T16:00:17.732Z,25.70
2022-11-27T16:01:17.757Z,25.69
2022-11-27T16:02:18.551Z,25.57
2022-11-27T16:03:17.664Z,25.52
2022-11-27T16:04:17.751Z,25.45
2022-11-27T16:05:17.645Z,25.39
2022-11-27T16:06:17.695Z,25.38
2022-11-27T16:07:17.707Z,25.36
2022-11-27T16:08:17.688Z,25.45
2022-11-27T16:09:17.607Z,25.54
2022-11-27T16:10:17.723Z,25.55
2022-11-27T16:11:17.561Z,25.60
2022-11-27T16:12:17.634Z,25.67
2022-11-27T16:13:19.427Z,25.75
2022-11-27T16:14:17.661Z,25.70
2022-11-27T16:15:17.575Z,25.62
2022-11-27T16:16:17.640Z,25.67
2022-11-27T16:17:17.500Z,25.77
2022-11-27T16:18:17.700Z,25.90
2022-11-27T16:19:17.578Z,25.98
2022-11-27T16:20:17.518Z,25.99
2022-11-27T16:21:17.522Z,26.07
2022-11-27T16:22:17.474Z,26.05
2022-11-27T16:23:17.446Z,25.98
2022-11-27T16:24:19.414Z,26.12
2022-11-27T16:25:17.476Z,26.20
2022-11-27T16:26:17.482Z,26.07
2022-11-27T16:27:17.460Z,25.97
2022-11-27T16:28:18.292Z,25.95
2022-11-27T16:29:17.432Z,25.90
2022-11-27T16:30:17.433Z,25.87
2022-11-27T16:32:46.861Z,25.88
2022-11-27T16:33:31.416Z,25.97
2022-11-27T16:34:29.696Z,26.01
2022-11-27T16:35:31.758Z,25.85
2022-11-27T16:36:29.613Z,25.76
2022-11-27T17:44:28.220Z,23.69
2022-11-27T17:45:28.130Z,23.73
2022-11-27T17:46:28.884Z,23.66
2022-11-27T17:47:28.069Z,23.48
2022-11-27T17:48:28.112Z,23.36
2022-11-27T17:49:29.656Z,23.23
2022-11-27T17:50:29.265Z,23.12
2022-11-27T17:51:28.047Z,23.13
2022-11-27T17:52:28.579Z,23.19
2022-11-27T17:53:28.001Z,23.27
2022-11-27T17:54:28.722Z,23.32
2022-11-27T17:55:28.000Z,23.31
2022-11-27T17:56:28.055Z,23.27
2022-11-27T17:57:27.978Z,23.25
2022-11-27T17:58:31.661Z,23.17
2022-11-27T17:59:28.077Z,23.10
2022-11-27T18:00:27.956Z,23.05
2022-11-27T18:01:27.990Z,23.00
2022-11-27T18:02:29.329Z,23.00
2022-11-27T18:03:28.880Z,23.05
2022-11-27T18:04:29.154Z,23.10
2022-11-27T18:05:27.918Z,23.15
2022-11-27T18:06:28.858Z,23.13
2022-11-27T18:07:28.054Z,23.02
2022-11-27T18:08:27.870Z,22.97
2022-11-27T18:09:27.833Z,22.86
2022-11-27T18:10:27.839Z,22.86
2022-11-27T18:11:27.820Z,22.88
2022-11-27T18:12:28.615Z,22.83
2022-11-27T18:13:27.778Z,22.77
2022-11-27T18:14:27.837Z,22.68
2022-11-27T18:15:29.669Z,22.62
2022-11-27T18:28:31.816Z,22.58
2022-11-27T18:29:32.803Z,22.58
2022-11-27T18:30:32.821Z,22.61
2022-11-27T18:31:32.903Z,22.61
2022-11-27T18:32:32.764Z,22.55
2022-11-27T18:33:32.789Z,22.49
2022-11-27T18:34:32.750Z,22.43
2022-11-27T18:35:33.895Z,22.42
2022-11-27T18:36:32.659Z,22.37
2022-11-27T18:44:41.124Z,22.18
2022-11-27T18:45:36.809Z,22.22
2022-11-27T18:59:46.443Z,21.92
2022-11-27T19:00:04.963Z,21.86
2022-11-27T19:01:05.044Z,21.86
2022-11-27T19:02:05.232Z,21.84
2022-11-27T19:03:05.005Z,21.83
2022-11-27T19:04:04.878Z,21.82
2022-11-27T19:05:04.968Z,21.82
2022-11-27T20:13:10.394Z,21.38
2022-11-27T20:14:11.098Z,21.40
2022-11-27T20:15:12.081Z,21.40
2022-11-27T20:16:13.033Z,21.46
2022-11-27T20:17:11.098Z,21.47
2022-11-27T20:18:11.042Z,21.46
2022-11-27T20:19:11.057Z,21.44
2022-11-27T20:20:11.093Z,21.46
2022-11-27T20:21:11.066Z,21.42
2022-11-27T20:22:11.013Z,21.38
2022-11-27T20:23:10.998Z,21.35
2022-11-27T20:24:14.124Z,21.38
2022-11-27T20:25:19.429Z,21.40
2022-11-27T20:26:12.372Z,21.43
2022-11-27T20:27:09.973Z,21.46
2022-11-27T20:28:10.988Z,21.49
2022-11-27T20:29:11.036Z,21.49
2022-11-27T20:30:11.642Z,21.50
2022-11-27T20:31:11.024Z,21.53
2022-11-27T20:32:11.008Z,21.54
2022-11-27T20:33:10.965Z,21.61
2022-11-27T20:34:10.966Z,21.65
2022-11-27T20:35:10.928Z,21.68
2022-11-27T20:36:10.862Z,21.69
2022-11-27T20:37:11.730Z,21.71
2022-11-27T20:38:10.846Z,21.67
2022-11-27T20:39:13.958Z,21.62
2022-11-27T20:40:10.862Z,21.59
2022-11-27T20:41:10.809Z,21.54
2022-11-27T20:42:11.756Z,21.54
2022-11-27T20:43:10.792Z,21.50
2022-11-27T20:44:11.514Z,21.43
2022-11-27T20:45:10.890Z,21.42
2022-11-27T20:46:11.992Z,21.38
2022-11-27T20:47:10.777Z,21.42
2022-11-27T20:48:12.703Z,21.42
2022-11-27T20:49:11.517Z,21.43
2022-11-27T20:50:10.746Z,21.46
2022-11-27T20:51:31.737Z,21.46
2022-11-27T20:52:10.692Z,21.46
2022-11-27T20:53:11.624Z,21.44
2022-11-27T20:54:10.786Z,21.43
2022-11-27T20:55:10.641Z,21.47
2022-11-27T20:56:11.489Z,21.49
2022-11-27T20:57:10.629Z,21.44
2022-11-27T20:58:10.599Z,21.47
2022-11-27T20:59:10.661Z,21.46
2022-11-27T21:00:11.705Z,21.46
2022-11-27T21:01:10.662Z,21.44
2022-11-27T21:06:17.515Z,21.32
2022-11-27T21:07:18.404Z,21.31
2022-11-27T21:13:09.899Z,21.28
2022-11-27T21:14:11.618Z,21.22
2022-11-27T21:15:10.898Z,21.17
2022-11-27T21:16:10.912Z,21.21
2022-11-27T21:17:13.438Z,21.21
2022-11-27T21:18:11.276Z,21.22
2022-11-27T21:19:10.810Z,21.24
2022-11-27T21:20:10.771Z,21.22
2022-11-27T21:21:10.857Z,21.24
2022-11-27T21:22:10.875Z,21.17
2022-11-27T21:23:12.764Z,21.14
2022-11-27T21:24:11.268Z,21.17
2022-11-27T21:25:10.825Z,21.17
2022-11-27T21:26:10.920Z,21.17
2022-11-27T21:27:11.637Z,21.19
2022-11-27T21:28:10.740Z,21.19
2022-11-27T21:29:10.678Z,21.21
2022-11-27T21:30:10.671Z,21.22
2022-11-27T21:31:36.037Z,21.19
2022-11-27T21:32:11.499Z,21.16
2022-11-27T21:35:08.104Z,21.07
2022-11-27T21:36:09.037Z,21.07
2022-11-27T21:37:09.210Z,21.07
2022-11-27T21:38:09.054Z,21.09
2022-11-27T21:39:09.133Z,21.04
2022-11-27T21:40:30.936Z,21.06
2022-11-27T21:41:09.905Z,21.04
2022-11-27T21:42:12.701Z,21.04
2022-11-27T21:43:09.108Z,21.01
2022-11-27T21:44:10.650Z,21.01
2022-11-27T21:45:10.320Z,21.01
2022-11-27T21:46:09.081Z,20.99
2022-11-27T21:47:09.853Z,21.03
2022-11-27T21:48:13.874Z,21.03
2022-11-27T21:49:39.737Z,20.99
2022-11-27T21:51:27.660Z,20.98
2022-11-27T21:52:36.531Z,20.89
2022-11-27T21:53:41.670Z,20.89
2022-11-27T21:56:11.374Z,20.84
2022-11-27T21:57:38.891Z,20.84
2022-11-27T22:00:19.207Z,20.77
2022-11-27T22:01:14.659Z,20.73
2022-11-27T22:02:13.824Z,20.74
2022-11-27T22:03:15.014Z,20.74
2022-11-27T22:04:13.738Z,20.74
2022-11-27T22:05:14.828Z,20.74
2022-11-27T22:06:26.777Z,20.77
2022-11-27T22:07:24.265Z,20.74
2022-11-27T22:08:14.233Z,20.70
2022-11-27T22:09:15.969Z,20.67
2022-11-27T22:10:23.567Z,20.66
2022-11-27T22:11:13.641Z,20.64
2022-11-27T22:12:13.734Z,20.64
2022-11-27T22:13:13.658Z,20.64
2022-11-27T22:14:13.654Z,20.64
2022-11-27T22:15:13.677Z,20.66
2022-11-27T22:16:13.659Z,20.64
2022-11-27T22:17:13.726Z,20.59
2022-11-27T22:18:13.646Z,20.59
2022-11-27T22:19:13.612Z,20.59
2022-11-27T22:20:13.573Z,20.57
2022-11-27T22:21:15.981Z,20.55
2022-11-27T22:22:13.542Z,20.54
2022-11-27T22:23:15.333Z,20.54
2022-11-27T22:24:18.817Z,20.55
2022-11-27T22:25:13.548Z,20.57
2022-11-27T22:26:13.543Z,20.57
2022-11-27T22:28:55.107Z,20.57
2022-11-27T22:29:56.076Z,20.57
2022-11-27T22:30:56.124Z,20.54
2022-11-27T22:31:58.025Z,20.54
2022-11-27T22:32:56.032Z,20.54
2022-11-27T22:33:55.996Z,20.52
2022-11-27T22:34:55.943Z,20.48
2022-11-27T22:35:55.974Z,20.43
2022-11-27T22:36:57.144Z,20.43
2022-11-27T22:37:57.095Z,20.43
2022-11-27T22:38:55.959Z,20.47
2022-11-27T22:40:17.961Z,20.47
2022-11-27T22:40:55.949Z,20.48
2022-11-27T22:41:55.933Z,20.50
2022-11-27T22:42:55.874Z,20.50
2022-11-27T22:43:55.888Z,20.50
2022-11-27T22:45:18.462Z,20.51
2022-11-27T22:45:55.913Z,20.54
2022-11-27T22:46:55.887Z,20.57
2022-11-27T23:22:38.489Z,20.06
2022-11-27T23:23:11.141Z,20.10
2022-11-27T23:24:11.258Z,20.13
2022-11-27T23:25:11.125Z,20.13
2022-11-27T23:26:16.137Z,20.13
2022-11-27T23:27:11.089Z,20.16
2022-11-27T23:28:11.410Z,20.20
2022-11-27T23:42:51.019Z,20.23
2022-11-27T23:43:52.460Z,20.18
2022-11-27T23:44:51.888Z,20.20
2022-11-27T23:45:51.926Z,20.18
2022-11-27T23:46:56.676Z,20.14
2022-11-27T23:47:53.647Z,20.13
2022-11-27T23:48:52.480Z,20.11
2022-11-27T23:49:51.814Z,20.08
2022-11-27T23:51:14.157Z,20.10
2022-11-27T23:51:51.899Z,20.11
2022-11-27T23:52:51.771Z,20.11
2022-11-27T23:53:53.678Z,20.14
2022-11-27T23:58:27.774Z,20.21
2022-11-27T23:59:28.749Z,20.23
